Time;durP1;ratioP1;P1;durP2;ratioP2;P2;SDS_P1;SDS_P2;PMS_P1;PMS_P2;Temp;Humidity;BMP_temperature;BMP_pressure;BME280_temperature;BME280_humidity;BME280_pressure;Samples;Min_cycle;Max_cycle;Signal;HPM_P1;HPM_P2
2022/09/07 00:01:14;;;;;;;2.03;1.52;;;;;;;;;;5115924;28;20379;-79
2022/09/07 00:03:39;;;;;;;3.92;1.63;;;;;;;;;;5115758;28;20521;-79
2022/09/07 00:06:07;;;;;;;3.05;1.65;;;;;;;;;;5115586;28;20119;-79
2022/09/07 00:08:33;;;;;;;4.70;1.67;;;;;;;;;;5097308;28;20042;-79
2022/09/07 00:11:05;;;;;;;2.75;1.65;;;;;;;;;;5097649;28;20108;-79
2022/09/07 00:13:33;;;;;;;2.40;1.50;;;;;;;;;;5115489;28;20020;-79
2022/09/07 00:16:03;;;;;;;4.43;1.90;;;;;;;;;;5097735;28;20072;-79
2022/09/07 00:18:28;;;;;;;6.10;1.73;;;;;;;;;;5097379;28;20368;-79
2022/09/07 00:21:20;;;;;;;2.80;1.70;;;;;;;;;;5114988;28;20055;-79
2022/09/07 00:23:47;;;;;;;3.80;2.03;;;;;;;;;;5093976;28;20085;-79
2022/09/07 00:26:16;;;;;;;2.67;1.65;;;;;;;;;;5115474;28;20027;-79
2022/09/07 00:28:42;;;;;;;4.50;1.55;;;;;;;;;;5097756;28;20348;-79
2022/09/07 00:31:13;;;;;;;1.70;1.50;;;;;;;;;;5097143;28;20027;-79
2022/09/07 00:33:40;;;;;;;2.95;1.63;;;;;;;;;;5079903;28;20046;-79
2022/09/07 00:36:05;;;;;;;1.55;1.38;;;;;;;;;;5096843;28;20152;-79
2022/09/07 00:38:31;;;;;;;2.63;1.45;;;;;;;;;;5096866;28;20114;-79
2022/09/07 00:40:56;;;;;;;3.65;1.88;;;;;;;;;;5114847;28;20028;-79
2022/09/07 00:43:48;;;;;;;2.55;1.42;;;;;;;;;;5114894;28;20047;-79
2022/09/07 00:46:25;;;;;;;2.78;1.30;;;;;;;;;;5096648;28;20550;-79
2022/09/07 00:48:51;;;;;;;2.10;1.40;;;;;;;;;;5079864;28;20086;-79
2022/09/07 00:51:28;;;;;;;2.83;1.40;;;;;;;;;;5095796;28;20478;-79
2022/09/07 00:54:03;;;;;;;2.28;1.52;;;;;;;;;;5114865;28;20023;-79
2022/09/07 00:56:31;;;;;;;2.63;1.27;;;;;;;;;;5096425;28;20069;-79
2022/09/07 00:58:57;;;;;;;1.00;0.93;;;;;;;;;;5114607;28;20023;-79
2022/09/07 01:01:22;;;;;;;1.67;0.98;;;;;;;;;;5096193;28;20317;-79
2022/09/07 01:03:50;;;;;;;2.20;1.23;;;;;;;;;;5079307;28;20050;-79
2022/09/07 01:06:16;;;;;;;1.95;1.20;;;;;;;;;;5096448;28;20444;-79
2022/09/07 01:08:42;;;;;;;1.55;1.20;;;;;;;;;;5096300;28;20482;-79
2022/09/07 01:11:08;;;;;;;2.97;1.33;;;;;;;;;;5114327;28;20020;-79
2022/09/07 01:13:34;;;;;;;1.50;1.40;;;;;;;;;;5114798;28;20035;-79
2022/09/07 01:16:18;;;;;;;4.63;1.50;;;;;;;;;;5096165;28;20144;-78
2022/09/07 01:18:59;;;;;;;;;;;;;;;;;;5114960;28;20451;-78
2022/09/07 01:21:28;;;;;;;1.75;1.15;;;;;;;;;;5095928;28;20298;-78
2022/09/07 01:24:20;;;;;;;3.80;1.38;;;;;;;;;;5079222;28;20032;-78
2022/09/07 01:26:54;;;;;;;2.65;1.23;;;;;;;;;;5096196;28;20019;-80
2022/09/07 01:29:31;;;;;;;1.20;1.10;;;;;;;;;;5113831;28;20030;-80
2022/09/07 01:32:28;;;;;;;1.80;1.15;;;;;;;;;;5079620;28;20359;-79
2022/09/07 01:34:54;;;;;;;2.05;1.20;;;;;;;;;;5112870;28;20036;-79
2022/09/07 01:37:28;;;;;;;1.77;1.08;;;;;;;;;;5113999;28;20035;-79
2022/09/07 01:40:10;;;;;;;1.52;1.20;;;;;;;;;;5095640;28;20020;-80
2022/09/07 01:42:45;;;;;;;3.55;1.40;;;;;;;;;;5095550;28;20383;-79
2022/09/07 01:45:11;;;;;;;1.95;1.10;;;;;;;;;;5078608;28;20031;-79
2022/09/07 01:47:41;;;;;;;3.33;1.40;;;;;;;;;;5095438;28;20054;-79
2022/09/07 01:50:15;;;;;;;1.98;1.00;;;;;;;;;;5095585;28;20467;-79
2022/09/07 01:52:53;;;;;;;3.38;1.33;;;;;;;;;;5114141;28;20023;-79
2022/09/07 01:55:26;;;;;;;2.05;1.40;;;;;;;;;;5078495;28;20027;-79
2022/09/07 01:57:57;;;;;;;4.38;1.42;;;;;;;;;;5113510;28;20045;-79
2022/09/07 02:00:23;;;;;;;1.65;1.10;;;;;;;;;;5095395;28;20028;-79
2022/09/07 02:03:17;;;;;;;2.20;0.98;;;;;;;;;;5078190;28;20031;-79
2022/09/07 02:05:52;;;;;;;1.98;1.17;;;;;;;;;;5095667;28;20068;-79
2022/09/07 02:08:26;;;;;;;2.22;1.30;;;;;;;;;;5113642;28;20019;-79
2022/09/07 02:11:00;;;;;;;4.00;1.40;;;;;;;;;;5113398;28;20425;-79
2022/09/07 02:13:31;;;;;;;2.55;1.48;;;;;;;;;;5078518;28;20019;-79
2022/09/07 02:16:04;;;;;;;2.20;1.10;;;;;;;;;;5095135;28;20031;-80
2022/09/07 02:18:35;;;;;;;2.20;1.30;;;;;;;;;;5095600;28;20095;-80
2022/09/07 02:21:00;;;;;;;3.35;1.23;;;;;;;;;;5094908;28;20047;-80
2022/09/07 02:23:32;;;;;;;4.05;1.40;;;;;;;;;;5113297;28;20038;-79
2022/09/07 02:26:08;;;;;;;3.30;1.08;;;;;;;;;;5095329;28;20027;-80
2022/09/07 02:28:35;;;;;;;2.45;1.20;;;;;;;;;;5095073;28;20034;-80
2022/09/07 02:31:01;;;;;;;1.70;1.15;;;;;;;;;;5113204;28;20027;-80
2022/09/07 02:33:27;;;;;;;1.80;1.38;;;;;;;;;;5094983;28;20031;-80
2022/09/07 02:35:53;;;;;;;3.25;1.27;;;;;;;;;;5094983;28;20034;-80
2022/09/07 02:38:18;;;;;;;1.90;1.23;;;;;;;;;;5113679;28;20027;-80
2022/09/07 02:40:50;;;;;;;2.15;1.20;;;;;;;;;;5078044;28;20058;-79
2022/09/07 02:43:16;;;;;;;2.35;1.50;;;;;;;;;;5095074;28;20030;-79
2022/09/07 02:46:18;;;;;;;1.48;1.08;;;;;;;;;;5094727;28;20048;-79
2022/09/07 02:48:59;;;;;;;1.55;1.20;;;;;;;;;;5113446;28;20034;-79
2022/09/07 02:51:25;;;;;;;1.20;1.05;;;;;;;;;;5094873;28;20020;-79
2022/09/07 02:54:22;;;;;;;3.28;1.10;;;;;;;;;;5113252;28;20437;-79
2022/09/07 02:57:11;;;;;;;2.97;0.90;;;;;;;;;;5112957;28;20484;-79
2022/09/07 03:00:13;;;;;;;3.38;1.20;;;;;;;;;;5094786;28;20463;-78
2022/09/07 03:02:42;;;;;;;2.13;0.95;;;;;;;;;;5094705;28;20073;-79
2022/09/07 03:05:35;;;;;;;2.08;1.00;;;;;;;;;;5094677;28;20084;-79
2022/09/07 03:08:15;;;;;;;1.25;0.98;;;;;;;;;;5113125;28;20352;-80
2022/09/07 03:10:41;;;;;;;3.33;1.45;;;;;;;;;;5094975;28;20027;-79
2022/09/07 03:13:07;;;;;;;3.65;1.20;;;;;;;;;;5114069;28;20047;-79
2022/09/07 03:15:32;;;;;;;2.30;1.20;;;;;;;;;;5098306;28;20069;-80
2022/09/07 03:17:57;;;;;;;9.60;1.00;;;;;;;;;;5098411;28;20027;-80
2022/09/07 03:20:23;;;;;;;1.13;0.98;;;;;;;;;;5098280;28;20403;-80
2022/09/07 03:22:50;;;;;;;2.38;1.20;;;;;;;;;;5081394;28;20051;-79
2022/09/07 03:25:16;;;;;;;2.10;1.10;;;;;;;;;;5081031;28;20031;-80
2022/09/07 03:27:41;;;;;;;0.85;0.85;;;;;;;;;;5098352;28;20035;-80
2022/09/07 03:30:08;;;;;;;1.73;1.00;;;;;;;;;;5098170;28;20029;-80
2022/09/07 03:32:36;;;;;;;1.77;1.20;;;;;;;;;;5097972;28;20015;-79
2022/09/07 03:35:03;;;;;;;1.65;0.85;;;;;;;;;;5098084;28;20398;-80
2022/09/07 03:37:29;;;;;;;2.05;1.27;;;;;;;;;;5098027;28;20132;-79
2022/09/07 03:39:54;;;;;;;0.85;0.85;;;;;;;;;;5116392;28;20032;-79
2022/09/07 03:42:20;;;;;;;2.17;1.10;;;;;;;;;;5116261;28;20028;-80
2022/09/07 03:44:47;;;;;;;1.23;1.13;;;;;;;;;;5081003;28;20076;-79
2022/09/07 03:47:13;;;;;;;1.30;1.20;;;;;;;;;;5098315;28;20482;-79
2022/09/07 03:49:38;;;;;;;2.25;1.20;;;;;;;;;;5097781;28;20028;-79
2022/09/07 03:52:03;;;;;;;0.68;0.68;;;;;;;;;;5097617;28;20386;-79
2022/09/07 03:54:29;;;;;;;1.27;1.00;;;;;;;;;;5115872;28;20024;-79
2022/09/07 03:56:55;;;;;;;2.35;1.10;;;;;;;;;;5080808;28;20035;-79
2022/09/07 03:59:20;;;;;;;1.95;1.10;;;;;;;;;;5097794;28;20027;-79
2022/09/07 04:01:45;;;;;;;1.50;0.90;;;;;;;;;;5115892;28;20482;-79
2022/09/07 04:04:12;;;;;;;1.58;1.10;;;;;;;;;;5097382;28;20031;-79
2022/09/07 04:06:37;;;;;;;2.03;1.00;;;;;;;;;;5097430;28;20027;-79
2022/09/07 04:09:05;;;;;;;1.35;1.10;;;;;;;;;;5097468;28;20030;-79
2022/09/07 04:11:30;;;;;;;1.65;1.05;;;;;;;;;;5097639;28;20502;-79
2022/09/07 04:13:56;;;;;;;1.05;0.98;;;;;;;;;;5097365;28;20055;-79
2022/09/07 04:16:23;;;;;;;2.42;1.20;;;;;;;;;;5097551;28;20055;-79
2022/09/07 04:18:49;;;;;;;2.72;1.00;;;;;;;;;;5097926;28;20032;-80
2022/09/07 04:21:16;;;;;;;3.50;1.33;;;;;;;;;;5096950;28;20502;-79
2022/09/07 04:23:42;;;;;;;1.65;1.20;;;;;;;;;;5115588;28;20019;-79
2022/09/07 04:26:34;;;;;;;1.75;0.90;;;;;;;;;;5079286;28;20031;-80
2022/09/07 04:29:01;;;;;;;0.98;0.93;;;;;;;;;;5093135;28;20491;-81
2022/09/07 04:31:27;;;;;;;12.90;2.38;;;;;;;;;;5115176;28;20022;-80
2022/09/07 04:33:53;;;;;;;13.18;3.05;;;;;;;;;;5097258;28;20027;-78
2022/09/07 04:36:19;;;;;;;3.88;1.90;;;;;;;;;;5080241;28;20023;-78
2022/09/07 04:38:45;;;;;;;6.75;2.00;;;;;;;;;;5097217;28;20164;-79
2022/09/07 04:41:15;;;;;;;6.32;1.65;;;;;;;;;;5115333;28;20016;-80
2022/09/07 04:43:42;;;;;;;5.57;1.60;;;;;;;;;;5097116;28;20035;-81
2022/09/07 04:46:13;;;;;;;13.98;1.92;;;;;;;;;;5097164;28;20023;-80
2022/09/07 04:48:39;;;;;;;6.40;1.45;;;;;;;;;;5097621;28;20035;-80
2022/09/07 04:51:08;;;;;;;6.63;1.33;;;;;;;;;;5096936;28;20402;-80
2022/09/07 04:53:35;;;;;;;4.40;1.40;;;;;;;;;;5080999;28;20374;-80
2022/09/07 04:56:01;;;;;;;3.25;1.15;;;;;;;;;;5097179;28;20053;-80
2022/09/07 04:58:26;;;;;;;4.30;1.02;;;;;;;;;;5080375;28;20115;-80
2022/09/07 05:00:52;;;;;;;2.67;0.88;;;;;;;;;;5114935;28;20383;-78
2022/09/07 05:03:17;;;;;;;2.10;1.00;;;;;;;;;;5096605;28;20039;-78
2022/09/07 05:05:43;;;;;;;8.15;1.55;;;;;;;;;;5115108;28;20027;-78
2022/09/07 05:08:09;;;;;;;8.25;2.20;;;;;;;;;;5079563;28;20062;-78
2022/09/07 05:10:35;;;;;;;5.93;1.58;;;;;;;;;;5079530;28;20028;-78
2022/09/07 05:13:01;;;;;;;5.25;1.42;;;;;;;;;;5114608;28;20097;-78
2022/09/07 05:15:30;;;;;;;6.28;1.70;;;;;;;;;;5100070;28;20026;-78
2022/09/07 05:17:56;;;;;;;3.95;1.60;;;;;;;;;;5082096;28;20031;-78
2022/09/07 05:20:22;;;;;;;4.28;1.40;;;;;;;;;;5117406;28;20101;-77
2022/09/07 05:22:47;;;;;;;4.88;1.25;;;;;;;;;;5098982;28;20027;-78
2022/09/07 05:25:13;;;;;;;2.28;1.25;;;;;;;;;;5098077;28;20433;-79
2022/09/07 05:27:39;;;;;;;5.90;1.60;;;;;;;;;;5098552;28;20031;-78
2022/09/07 05:30:04;;;;;;;7.43;1.52;;;;;;;;;;5081556;28;20077;-78
2022/09/07 05:32:30;;;;;;;5.70;1.52;;;;;;;;;;5098373;28;20035;-77
2022/09/07 05:34:55;;;;;;;2.10;1.38;;;;;;;;;;5115938;28;20032;-77
2022/09/07 05:37:21;;;;;;;6.15;1.50;;;;;;;;;;5096226;28;20387;-77
2022/09/07 05:39:46;;;;;;;8.75;1.50;;;;;;;;;;5114573;28;20032;-78
2022/09/07 05:42:12;;;;;;;4.28;1.40;;;;;;;;;;5114131;28;20023;-77
2022/09/07 05:44:37;;;;;;;3.20;1.52;;;;;;;;;;5114254;28;20123;-77
2022/09/07 05:47:03;;;;;;;2.53;1.40;;;;;;;;;;5096165;28;20502;-77
2022/09/07 05:49:29;;;;;;;2.80;1.40;;;;;;;;;;5095960;28;20027;-77
2022/09/07 05:51:54;;;;;;;3.70;1.33;;;;;;;;;;5078918;28;20019;-78
2022/09/07 05:54:19;;;;;;;2.17;1.33;;;;;;;;;;5096821;28;20100;-76
2022/09/07 05:56:45;;;;;;;8.48;1.80;;;;;;;;;;5117207;28;20020;-78
2022/09/07 05:59:10;;;;;;;1.73;1.30;;;;;;;;;;5079075;28;20031;-76
2022/09/07 06:01:35;;;;;;;1.92;1.40;;;;;;;;;;5096426;28;20493;-77
2022/09/07 06:04:01;;;;;;;2.20;1.27;;;;;;;;;;5114166;28;20429;-77
2022/09/07 06:06:26;;;;;;;6.97;1.55;;;;;;;;;;5113765;28;20100;-77
2022/09/07 06:08:52;;;;;;;2.17;1.30;;;;;;;;;;5095475;28;20032;-77
2022/09/07 06:11:22;;;;;;;2.90;1.40;;;;;;;;;;5078853;28;20093;-77
2022/09/07 06:13:48;;;;;;;5.10;1.70;;;;;;;;;;5096027;28;20051;-77
2022/09/07 06:16:14;;;;;;;6.50;1.77;;;;;;;;;;5096152;28;20487;-77
2022/09/07 06:18:41;;;;;;;2.08;1.08;;;;;;;;;;5095699;28;20035;-76
2022/09/07 06:21:12;;;;;;;2.67;1.15;;;;;;;;;;5095260;28;20088;-78
2022/09/07 06:23:39;;;;;;;2.22;1.42;;;;;;;;;;5078621;28;20059;-78
2022/09/07 06:26:05;;;;;;;2.45;1.20;;;;;;;;;;5095401;28;20448;-79
2022/09/07 06:28:35;;;;;;;1.52;1.30;;;;;;;;;;5079042;28;20020;-78
2022/09/07 06:31:06;;;;;;;5.45;1.45;;;;;;;;;;5095530;28;20019;-78
2022/09/07 06:33:32;;;;;;;2.25;1.10;;;;;;;;;;5095665;28;20026;-78
2022/09/07 06:36:02;;;;;;;4.72;1.10;;;;;;;;;;5114006;28;20028;-78
2022/09/07 06:38:32;;;;;;;4.68;1.35;;;;;;;;;;5079396;28;20028;-78
2022/09/07 06:41:12;;;;;;;2.45;1.30;;;;;;;;;;5095864;28;20028;-79
2022/09/07 06:43:39;;;;;;;2.63;1.35;;;;;;;;;;5095771;28;20035;-79
2022/09/07 06:46:05;;;;;;;4.15;1.80;;;;;;;;;;5095154;28;20084;-79
2022/09/07 06:48:31;;;;;;;3.67;2.15;;;;;;;;;;5099250;28;20032;-79
2022/09/07 06:50:58;;;;;;;7.57;1.70;;;;;;;;;;5118796;28;20035;-79
2022/09/07 06:53:25;;;;;;;5.25;2.63;;;;;;;;;;5083240;28;20027;-78
2022/09/07 06:55:51;;;;;;;3.95;1.80;;;;;;;;;;5065542;28;20027;-77
2022/09/07 06:58:16;;;;;;;5.68;2.35;;;;;;;;;;5082040;28;20114;-77
2022/09/07 07:00:42;;;;;;;4.45;1.67;;;;;;;;;;5082099;28;20046;-77
2022/09/07 07:03:07;;;;;;;7.25;1.75;;;;;;;;;;5117896;28;20019;-76
2022/09/07 07:05:32;;;;;;;3.67;1.70;;;;;;;;;;5117517;28;20036;-76
2022/09/07 07:07:58;;;;;;;3.38;1.75;;;;;;;;;;5082365;28;20400;-77
2022/09/07 07:10:24;;;;;;;5.72;2.03;;;;;;;;;;5067335;28;20032;-76
2022/09/07 07:12:51;;;;;;;5.30;1.80;;;;;;;;;;5077860;28;20032;-77
2022/09/07 07:15:17;;;;;;;3.88;1.95;;;;;;;;;;5078672;28;20027;-77
2022/09/07 07:17:42;;;;;;;3.75;2.50;;;;;;;;;;5078520;28;20458;-76
2022/09/07 07:20:08;;;;;;;5.95;1.80;;;;;;;;;;5061421;28;20092;-76
2022/09/07 07:22:33;;;;;;;3.58;1.50;;;;;;;;;;5096696;28;20095;-76
2022/09/07 07:24:59;;;;;;;3.42;1.67;;;;;;;;;;5096707;28;20548;-76
2022/09/07 07:27:24;;;;;;;2.25;1.48;;;;;;;;;;5061604;28;20051;-76
2022/09/07 07:29:51;;;;;;;4.88;2.38;;;;;;;;;;5078481;28;20376;-76
2022/09/07 07:32:16;;;;;;;3.72;1.80;;;;;;;;;;5078378;28;20506;-77
2022/09/07 07:35:19;;;;;;;3.00;2.33;;;;;;;;;;5077446;28;20059;-77
2022/09/07 07:37:44;;;;;;;5.80;1.90;;;;;;;;;;5096183;28;20015;-77
2022/09/07 07:40:11;;;;;;;5.40;1.58;;;;;;;;;;5092496;28;20032;-77
2022/09/07 07:42:38;;;;;;;5.55;1.90;;;;;;;;;;5080967;28;20118;-78
2022/09/07 07:45:05;;;;;;;4.05;1.90;;;;;;;;;;5115956;28;20027;-77
2022/09/07 07:47:31;;;;;;;4.43;1.63;;;;;;;;;;5097963;28;20042;-77
2022/09/07 07:49:57;;;;;;;3.97;1.80;;;;;;;;;;5080745;28;20023;-77
2022/09/07 07:52:23;;;;;;;5.75;1.90;;;;;;;;;;5097897;28;20034;-78
2022/09/07 07:54:49;;;;;;;4.68;1.75;;;;;;;;;;5096722;28;20040;-78
2022/09/07 07:57:17;;;;;;;7.57;1.90;;;;;;;;;;5084636;28;20114;-79
2022/09/07 07:59:43;;;;;;;15.48;2.60;;;;;;;;;;5078760;28;20047;-79
2022/09/07 08:02:13;;;;;;;6.57;2.70;;;;;;;;;;5068385;28;20050;-78
2022/09/07 08:04:39;;;;;;;9.25;2.72;;;;;;;;;;5068253;28;20024;-79
2022/09/07 08:07:04;;;;;;;11.70;2.55;;;;;;;;;;5070204;28;20058;-78
2022/09/07 08:09:30;;;;;;;8.00;2.45;;;;;;;;;;5074588;28;20028;-79
2022/09/07 08:11:55;;;;;;;3.78;2.10;;;;;;;;;;5070279;28;20506;-79
2022/09/07 08:14:21;;;;;;;6.05;2.08;;;;;;;;;;5076727;28;20390;-78
2022/09/07 08:16:46;;;;;;;4.32;2.50;;;;;;;;;;5060155;28;20081;-78
2022/09/07 08:19:12;;;;;;;3.28;2.50;;;;;;;;;;5077496;28;20024;-77
2022/09/07 08:21:37;;;;;;;5.13;2.75;;;;;;;;;;5082231;28;20036;-78
2022/09/07 08:24:02;;;;;;;4.68;2.83;;;;;;;;;;5094255;28;20056;-79
2022/09/07 08:26:28;;;;;;;5.35;2.75;;;;;;;;;;5070587;28;20027;-79
2022/09/07 08:28:54;;;;;;;6.82;2.47;;;;;;;;;;5088838;28;20036;-79
2022/09/07 08:31:19;;;;;;;8.10;2.22;;;;;;;;;;5094991;28;20036;-79
2022/09/07 08:33:44;;;;;;;9.95;2.53;;;;;;;;;;5090851;28;20395;-79
2022/09/07 08:36:14;;;;;;;10.25;3.00;;;;;;;;;;5094255;28;20084;-77
2022/09/07 08:38:40;;;;;;;8.38;3.25;;;;;;;;;;5073411;28;20107;-76
2022/09/07 08:41:38;;;;;;;8.98;2.20;;;;;;;;;;5079864;28;20032;-76
2022/09/07 08:44:25;;;;;;;14.13;2.65;;;;;;;;;;5076643;28;20027;-76
2022/09/07 08:46:59;;;;;;;8.02;3.05;;;;;;;;;;5040731;28;20452;-76
2022/09/07 08:49:30;;;;;;;10.98;3.10;;;;;;;;;;5062249;28;20072;-77
2022/09/07 08:52:13;;;;;;;11.63;3.20;;;;;;;;;;5077693;28;20107;-76
2022/09/07 08:54:42;;;;;;;5.05;3.20;;;;;;;;;;5076052;28;20060;-76
2022/09/07 08:57:07;;;;;;;6.15;3.50;;;;;;;;;;5076599;28;20028;-77
2022/09/07 08:59:43;;;;;;;4.90;3.13;;;;;;;;;;5059957;28;20043;-77
2022/09/07 09:02:14;;;;;;;7.40;3.22;;;;;;;;;;5076429;28;20024;-77
2022/09/07 09:04:41;;;;;;;3.72;3.38;;;;;;;;;;5093884;28;20475;-78
2022/09/07 09:07:37;;;;;;;10.82;3.10;;;;;;;;;;5076752;28;20032;-79
2022/09/07 09:10:09;;;;;;;4.30;2.92;;;;;;;;;;5086415;28;20054;-79
2022/09/07 09:12:40;;;;;;;7.97;2.95;;;;;;;;;;5094004;28;20503;-79
2022/09/07 09:15:16;;;;;;;10.13;3.78;;;;;;;;;;5092447;28;20028;-79
2022/09/07 09:17:52;;;;;;;8.82;3.72;;;;;;;;;;5094776;28;20024;-79
2022/09/07 09:20:31;;;;;;;5.75;3.50;;;;;;;;;;5090150;28;20052;-80
2022/09/07 09:23:01;;;;;;;7.72;3.78;;;;;;;;;;5074531;28;20104;-80
2022/09/07 09:25:34;;;;;;;5.68;3.88;;;;;;;;;;5083241;28;20028;-80
2022/09/07 09:28:00;;;;;;;5.53;3.67;;;;;;;;;;5073337;28;20024;-80
2022/09/07 09:30:26;;;;;;;5.22;3.90;;;;;;;;;;5084066;28;20031;-80
2022/09/07 09:33:12;;;;;;;4.72;3.15;;;;;;;;;;5093029;28;20400;-80
2022/09/07 09:35:38;;;;;;;6.32;3.50;;;;;;;;;;5077574;28;20016;-80
2022/09/07 09:38:04;;;;;;;4.43;3.55;;;;;;;;;;5066002;28;20476;-79
2022/09/07 09:40:30;;;;;;;8.85;3.85;;;;;;;;;;5061401;28;20026;-78
2022/09/07 09:43:05;;;;;;;4.07;3.45;;;;;;;;;;5068990;28;20028;-78
2022/09/07 09:45:35;;;;;;;4.25;3.50;;;;;;;;;;5093084;28;20040;-78
2022/09/07 09:48:09;;;;;;;8.98;4.25;;;;;;;;;;5065308;28;20320;-78
2022/09/07 09:50:37;;;;;;;7.47;4.68;;;;;;;;;;5085621;28;20051;-79
2022/09/07 09:53:04;;;;;;;7.95;4.10;;;;;;;;;;5066053;28;20036;-79
2022/09/07 09:55:41;;;;;;;6.97;4.20;;;;;;;;;;5066533;28;20063;-79
2022/09/07 09:58:30;;;;;;;5.05;4.00;;;;;;;;;;5082022;28;20024;-79
2022/09/07 10:01:06;;;;;;;6.57;3.60;;;;;;;;;;5055176;28;20077;-79
2022/09/07 10:03:34;;;;;;;6.53;3.80;;;;;;;;;;5060193;28;20028;-79
2022/09/07 10:06:03;;;;;;;4.57;4.03;;;;;;;;;;5064195;28;20031;-78
2022/09/07 10:08:31;;;;;;;6.28;4.25;;;;;;;;;;5065543;28;20110;-79
2022/09/07 10:11:01;;;;;;;4.88;3.80;;;;;;;;;;5087202;28;20065;-79
2022/09/07 10:13:33;;;;;;;10.32;4.28;;;;;;;;;;5090257;28;20046;-79
2022/09/07 10:16:02;;;;;;;7.70;4.25;;;;;;;;;;5102901;28;20024;-78
2022/09/07 10:18:31;;;;;;;6.05;4.07;;;;;;;;;;5077135;28;20031;-79
2022/09/07 10:21:23;;;;;;;6.32;4.20;;;;;;;;;;5096515;28;20433;-79
2022/09/07 10:24:19;;;;;;;5.07;3.42;;;;;;;;;;5079062;28;20024;-78
2022/09/07 10:26:47;;;;;;;8.55;3.70;;;;;;;;;;5055793;28;20074;-78
2022/09/07 10:29:34;;;;;;;6.88;4.55;;;;;;;;;;5095872;28;20024;-77
2022/09/07 10:32:36;;;;;;;6.97;4.00;;;;;;;;;;5079117;28;20058;-77
2022/09/07 10:35:25;;;;;;;5.80;3.70;;;;;;;;;;5096739;28;20028;-79
2022/09/07 10:38:02;;;;;;;5.32;3.92;;;;;;;;;;5061847;28;20442;-79
2022/09/07 10:40:39;;;;;;;5.90;3.88;;;;;;;;;;5096787;28;20016;-79
2022/09/07 10:43:10;;;;;;;5.28;3.35;;;;;;;;;;5095398;28;20093;-79
2022/09/07 10:45:58;;;;;;;5.10;3.40;;;;;;;;;;5096506;28;20032;-78
2022/09/07 10:48:43;;;;;;;5.03;3.10;;;;;;;;;;5095591;28;20040;-78
2022/09/07 10:51:36;;;;;;;4.20;3.47;;;;;;;;;;5096435;28;20053;-78
2022/09/07 10:54:20;;;;;;;4.00;2.90;;;;;;;;;;5078616;28;20103;-80
2022/09/07 10:57:19;;;;;;;5.45;3.10;;;;;;;;;;5078432;28;20421;-78
2022/09/07 10:59:54;;;;;;;5.43;2.50;;;;;;;;;;5096269;28;20047;-78
2022/09/07 11:02:38;;;;;;;6.78;3.10;;;;;;;;;;5078199;28;20024;-78
2022/09/07 11:05:24;;;;;;;7.13;2.33;;;;;;;;;;5078151;28;20187;-78
2022/09/07 11:07:55;;;;;;;2.83;2.30;;;;;;;;;;5095165;28;20475;-78
2022/09/07 11:10:20;;;;;;;3.35;2.53;;;;;;;;;;5077842;28;20058;-78
2022/09/07 11:12:47;;;;;;;4.30;2.30;;;;;;;;;;5096205;28;20067;-78
2022/09/07 11:15:36;;;;;;;4.57;2.28;;;;;;;;;;5094851;28;20461;-78
2022/09/07 11:18:11;;;;;;;3.47;2.10;;;;;;;;;;5085296;28;20044;-78
2022/09/07 11:20:44;;;;;;;2.85;2.00;;;;;;;;;;5062373;28;20036;-78
2022/09/07 11:23:19;;;;;;;3.05;2.05;;;;;;;;;;5079460;28;20432;-78
2022/09/07 11:26:22;;;;;;;2.88;1.73;;;;;;;;;;5097875;28;20430;-78
2022/09/07 11:28:58;;;;;;;2.95;1.60;;;;;;;;;;5100397;28;20024;-81
2022/09/07 11:31:42;;;;;;;3.50;1.40;;;;;;;;;;5082190;28;20035;-81
2022/09/07 11:34:44;;;;;;;3.65;1.30;;;;;;;;;;5080302;28;20107;-78
2022/09/07 11:37:19;;;;;;;5.97;1.77;;;;;;;;;;5098623;28;20043;-77
2022/09/07 11:40:05;;;;;;;9.48;2.55;;;;;;;;;;5064873;28;20135;-77
2022/09/07 11:42:37;;;;;;;3.17;2.13;;;;;;;;;;5111581;28;20036;-78
2022/09/07 11:45:24;;;;;;;6.20;1.88;;;;;;;;;;5101769;28;20024;-78
2022/09/07 11:48:17;;;;;;;6.68;1.80;;;;;;;;;;5062944;28;20035;-77
2022/09/07 11:50:47;;;;;;;1.92;1.60;;;;;;;;;;5076456;28;20184;-78
2022/09/07 11:53:17;;;;;;;3.53;1.85;;;;;;;;;;5079631;28;20107;-78
2022/09/07 11:55:46;;;;;;;5.18;2.00;;;;;;;;;;5097512;28;20022;-78
2022/09/07 11:58:26;;;;;;;4.90;2.08;;;;;;;;;;5080139;28;20103;-78
2022/09/07 12:01:14;;;;;;;2.75;1.45;;;;;;;;;;5097127;28;20023;-78
2022/09/07 12:03:43;;;;;;;3.78;1.40;;;;;;;;;;5062630;28;20031;-78
2022/09/07 12:06:34;;;;;;;5.03;1.67;;;;;;;;;;5097454;28;20043;-77
2022/09/07 12:09:20;;;;;;;4.10;1.70;;;;;;;;;;5079812;28;20028;-77
2022/09/07 12:12:05;;;;;;;3.45;1.40;;;;;;;;;;5097814;28;20073;-78
2022/09/07 12:14:49;;;;;;;2.88;1.67;;;;;;;;;;5080177;28;20484;-78
2022/09/07 12:17:33;;;;;;;2.28;1.42;;;;;;;;;;5079534;28;20510;-78
2022/09/07 12:20:25;;;;;;;2.47;1.35;;;;;;;;;;5097586;28;20055;-78
2022/09/07 12:23:05;;;;;;;2.40;1.42;;;;;;;;;;5032897;28;20046;-78
2022/09/07 12:25:33;;;;;;;3.85;1.70;;;;;;;;;;5079871;28;20396;-78
2022/09/07 12:27:58;;;;;;;5.53;2.08;;;;;;;;;;5062798;28;20024;-78
2022/09/07 12:30:23;;;;;;;3.78;1.70;;;;;;;;;;5098341;28;20431;-78
2022/09/07 12:32:50;;;;;;;2.70;1.50;;;;;;;;;;5097721;28;20027;-78
2022/09/07 12:35:40;;;;;;;4.40;1.50;;;;;;;;;;5079532;28;20024;-78
2022/09/07 12:38:12;;;;;;;4.82;1.35;;;;;;;;;;5096276;28;20030;-78
2022/09/07 12:40:38;;;;;;;3.13;1.40;;;;;;;;;;5097220;28;20047;-79
2022/09/07 12:43:15;;;;;;;3.45;1.40;;;;;;;;;;5097232;28;20048;-79
2022/09/07 12:45:43;;;;;;;2.50;1.55;;;;;;;;;;5078458;28;20028;-79
2022/09/07 12:48:08;;;;;;;4.35;1.60;;;;;;;;;;5097676;28;20046;-78
2022/09/07 12:50:36;;;;;;;4.22;1.60;;;;;;;;;;5098226;28;20361;-79
2022/09/07 12:53:39;;;;;;;4.43;1.80;;;;;;;;;;5081570;28;20070;-80
2022/09/07 12:56:21;;;;;;;3.00;1.50;;;;;;;;;;5100683;28;20035;-79
2022/09/07 12:58:59;;;;;;;4.50;1.40;;;;;;;;;;5101165;28;20020;-81
2022/09/07 13:01:28;;;;;;;2.70;1.38;;;;;;;;;;5082067;28;20024;-79
2022/09/07 13:04:12;;;;;;;4.25;1.38;;;;;;;;;;5099338;28;20020;-76
2022/09/07 13:07:13;;;;;;;3.90;1.70;;;;;;;;;;5100346;28;20156;-78
2022/09/07 13:09:40;;;;;;;4.53;1.40;;;;;;;;;;5105758;28;20051;-82
2022/09/07 13:12:40;;;;;;;3.92;1.60;;;;;;;;;;5106954;28;20012;-80
2022/09/07 13:15:06;;;;;;;3.00;1.50;;;;;;;;;;5041601;28;20146;-79
2022/09/07 13:17:32;;;;;;;4.70;1.40;;;;;;;;;;5080724;28;20056;-79
2022/09/07 13:19:57;;;;;;;17.33;2.00;;;;;;;;;;5087829;28;20056;-80
2022/09/07 13:22:46;;;;;;;4.65;1.60;;;;;;;;;;5093863;28;20023;-80
2022/09/07 13:25:19;;;;;;;4.30;1.45;;;;;;;;;;5024719;28;20040;-80
2022/09/07 13:28:24;;;;;;;6.10;1.80;;;;;;;;;;5074829;28;20395;-80
2022/09/07 13:31:28;;;;;;;5.55;1.77;;;;;;;;;;5069045;28;20036;-78
2022/09/07 13:33:56;;;;;;;7.15;2.13;;;;;;;;;;5057682;28;20539;-80
2022/09/07 13:36:29;;;;;;;8.65;2.00;;;;;;;;;;5067460;28;20028;-80
2022/09/07 13:38:55;;;;;;;5.30;1.70;;;;;;;;;;5075119;28;20498;-79
2022/09/07 13:41:28;;;;;;;6.40;1.40;;;;;;;;;;5072060;28;20031;-80
2022/09/07 13:43:59;;;;;;;5.60;1.65;;;;;;;;;;5053774;28;20034;-80
2022/09/07 13:46:41;;;;;;;5.18;1.55;;;;;;;;;;5059646;28;20098;-78
2022/09/07 13:49:22;;;;;;;10.30;1.83;;;;;;;;;;5050094;28;20048;-80
2022/09/07 13:52:07;;;;;;;4.50;1.85;;;;;;;;;;5051247;28;20020;-80
2022/09/07 13:54:48;;;;;;;4.75;1.65;;;;;;;;;;5074197;28;20035;-79
2022/09/07 13:57:25;;;;;;;9.15;1.85;;;;;;;;;;5067604;28;20634;-80
2022/09/07 13:59:51;;;;;;;6.10;1.98;;;;;;;;;;5050719;28;20024;-78
2022/09/07 14:02:28;;;;;;;7.72;1.92;;;;;;;;;;5048564;28;20027;-79
2022/09/07 14:04:59;;;;;;;7.70;1.80;;;;;;;;;;5071501;28;20016;-79
2022/09/07 14:07:28;;;;;;;11.02;2.00;;;;;;;;;;5070490;28;20043;-79
2022/09/07 14:10:18;;;;;;;10.50;2.13;;;;;;;;;;5056549;28;20066;-79
2022/09/07 14:12:45;;;;;;;3.75;1.88;;;;;;;;;;5069790;28;20030;-80
2022/09/07 14:15:20;;;;;;;4.97;1.60;;;;;;;;;;5094892;28;20043;-80
2022/09/07 14:17:46;;;;;;;7.93;1.85;;;;;;;;;;5091006;28;20427;-80
2022/09/07 14:20:16;;;;;;;4.43;1.70;;;;;;;;;;5058351;28;20051;-80
2022/09/07 14:22:42;;;;;;;2.72;1.60;;;;;;;;;;5067946;28;20056;-80
2022/09/07 14:25:14;;;;;;;2.75;1.17;;;;;;;;;;5074925;28;20081;-80
2022/09/07 14:27:41;;;;;;;1.67;1.10;;;;;;;;;;5061939;28;20496;-79
2022/09/07 14:30:14;;;;;;;1.90;1.50;;;;;;;;;;5059165;28;20299;-80
2022/09/07 14:32:40;;;;;;;3.13;1.05;;;;;;;;;;5075955;28;20073;-80
2022/09/07 14:35:10;;;;;;;3.85;1.52;;;;;;;;;;5074999;28;20028;-80
2022/09/07 14:37:36;;;;;;;3.30;1.20;;;;;;;;;;5075423;28;20050;-80
2022/09/07 14:40:02;;;;;;;2.15;1.15;;;;;;;;;;5083074;28;20484;-79
2022/09/07 14:42:27;;;;;;;1.50;1.10;;;;;;;;;;5085323;28;20036;-80
2022/09/07 14:45:21;;;;;;;2.60;1.05;;;;;;;;;;5093240;28;20027;-80
2022/09/07 14:47:47;;;;;;;1.27;0.85;;;;;;;;;;5075769;28;20050;-79
2022/09/07 14:50:16;;;;;;;1.58;1.00;;;;;;;;;;5076240;28;20040;-79
2022/09/07 14:52:42;;;;;;;2.72;1.08;;;;;;;;;;5075043;28;20038;-80
2022/09/07 14:55:34;;;;;;;4.20;1.13;;;;;;;;;;5074883;28;20107;-80
2022/09/07 14:58:14;;;;;;;2.08;1.20;;;;;;;;;;5074803;28;20426;-80
2022/09/07 15:00:41;;;;;;;2.53;1.08;;;;;;;;;;5087732;28;20030;-80
2022/09/07 15:03:39;;;;;;;1.85;0.90;;;;;;;;;;5091676;28;20118;-80
2022/09/07 15:06:06;;;;;;;2.35;0.80;;;;;;;;;;5036317;28;20040;-79
2022/09/07 15:08:39;;;;;;;5.47;1.17;;;;;;;;;;5073855;28;20027;-80
2022/09/07 15:11:20;;;;;;;1.90;1.17;;;;;;;;;;5094546;28;20544;-80
2022/09/07 15:14:02;;;;;;;3.25;1.20;;;;;;;;;;5066479;28;20541;-80